PrentiSS Brown — WDE6848 — position and weather

sailwx.info

Track history (hours):
 
Tides and Currents Weather Stations Pressure Air Temp Water Temp Dewpoint Dewpoint Depression Visibility Wind Speed Wind Dir Waves Ship Positions

PrentiSS Brown

Owner: Port City Marine Services Inc, Muskegon, MI. More information available from US FCC via Universal Licensing System and Coast Guard Vessel Documentation Center.

Last reported at 2015-Jan-26 12:27 UTC. Time now 2015-Jan-29 14:25 UTC.
Position N 45°00' W 085°58'.

; draft 5.3 m.

Type: Other ship. MMSI: 366922280.

Date/timePositionNaut miles runAvg speedWind from/ knotsBaromVisibWave heightAir tempDewpointWater temp
2015-Jan-26 12:27N 45°00' W 085°58'11 8.9
2015-Jan-26 11:12N 45°08' W 085°47'6 8.8
2015-Jan-26 10:33N 45°12' W 085°41'9 8.9
2015-Jan-26 09:33N 45°16' W 085°30'9 8.9
2015-Jan-26 08:33N 45°20' W 085°18'1 1.0
2015-Jan-26 07:33N 45°19' W 085°18'0 0.0
2015-Jan-26 06:33N 45°19' W 085°18'0 0.0
2015-Jan-26 05:33N 45°19' W 085°18'0 0.0
2015-Jan-26 04:33N 45°19' W 085°18'0 0.0
2015-Jan-26 03:33N 45°19' W 085°18'0 0.0
2015-Jan-26 02:33N 45°19' W 085°18'0 0.0
2015-Jan-26 01:33N 45°19' W 085°18'0 0.0
2015-Jan-26 00:33N 45°19' W 085°18'0 0.0
2015-Jan-25 23:33N 45°19' W 085°18'0 0.0
2015-Jan-25 22:33N 45°19' W 085°18'0 0.0
2015-Jan-25 21:33N 45°19' W 085°18'0 0.0
2015-Jan-25 20:33N 45°19' W 085°18'0 0.0
2015-Jan-25 19:33N 45°19' W 085°18'0 0.0
2015-Jan-25 18:33N 45°19' W 085°18'0 0.0
2015-Jan-25 17:33N 45°19' W 085°18'0 0.0
2015-Jan-25 16:33N 45°19' W 085°18'0 0.2
2015-Jan-25 15:33N 45°19' W 085°17'6 5.7
2015-Jan-25 14:33N 45°21' W 085°25'4 3.6
2015-Jan-25 13:33N 45°24' W 085°24'9 9.1
2015-Jan-25 12:33N 45°30' W 085°35'9 9.0
2015-Jan-25 11:33N 45°32' W 085°48'9 8.9
2015-Jan-25 10:33N 45°31' W 086°00'9 8.9
2015-Jan-25 09:31N 45°30' W 086°13'  
2015-Jan-22 03:10N 45°11' W 085°43'6 9.6
2015-Jan-22 02:33N 45°14' W 085°36'10 9.7
2015-Jan-22 01:33N 45°19' W 085°24'4 4.3
2015-Jan-22 00:33N 45°19' W 085°18'0 0.0
2015-Jan-21 23:33N 45°19' W 085°18'0 0.0
2015-Jan-21 22:50N 45°19' W 085°18'0 0.0
2015-Jan-21 22:46N 45°19' W 085°18'0 0.0
2015-Jan-21 22:33N 45°19' W 085°18'0 0.0
2015-Jan-21 21:33N 45°19' W 085°18'0 0.0
2015-Jan-21 20:33N 45°19' W 085°18'0 0.0
2015-Jan-21 19:33N 45°19' W 085°18'0 0.0
2015-Jan-21 18:33N 45°19' W 085°18'0 0.0
2015-Jan-21 17:33N 45°19' W 085°18'0 0.0
2015-Jan-21 16:33N 45°19' W 085°18'0 0.0
2015-Jan-21 15:33N 45°19' W 085°18'0 0.0
2015-Jan-21 14:33N 45°19' W 085°18'0 0.0
2015-Jan-21 13:33N 45°19' W 085°18'0 0.0
2015-Jan-21 12:33N 45°19' W 085°18'0 0.0
2015-Jan-21 11:33N 45°19' W 085°18'0 0.0
2015-Jan-21 10:33N 45°19' W 085°18'0 0.0
2015-Jan-21 09:33N 45°19' W 085°18'0 0.0
2015-Jan-21 08:33N 45°19' W 085°18'0 0.0
2015-Jan-21 07:33N 45°19' W 085°18'0 0.0
2015-Jan-21 06:33N 45°19' W 085°18'0 0.0
2015-Jan-21 05:33N 45°19' W 085°18'0 0.0
2015-Jan-21 04:33N 45°19' W 085°18'0 0.0
2015-Jan-21 03:33N 45°19' W 085°18'0 0.0
2015-Jan-21 02:33N 45°19' W 085°18'0 0.0
2015-Jan-21 01:33N 45°19' W 085°18'0 0.0
2015-Jan-21 00:33N 45°19' W 085°18'0 0.0
2015-Jan-20 23:33N 45°19' W 085°18'0 0.0
2015-Jan-20 22:33N 45°19' W 085°18'0 0.0
2015-Jan-20 21:33N 45°19' W 085°18'1 1.3
2015-Jan-20 20:33N 45°20' W 085°19'10 9.7
2015-Jan-20 19:33N 45°16' W 085°31'10 9.8
2015-Jan-20 18:33N 45°10' W 085°43'10 9.8
2015-Jan-20 17:33N 45°04' W 085°53'10 0.2
2015-Jan-18 15:33N 45°13' W 085°59'9 8.5
2015-Jan-18 14:33N 45°14' W 085°47'9 8.6
2015-Jan-18 13:33N 45°14' W 085°35'7 6.9
2015-Jan-18 12:33N 45°09' W 085°29'9 8.8
2015-Jan-18 11:33N 45°01' W 085°35'2 2.2
2015-Jan-18 10:33N 44°59' W 085°37'0 0.0
2015-Jan-18 09:33N 44°59' W 085°37'0 0.0
2015-Jan-18 08:33N 44°59' W 085°37'0 0.0
2015-Jan-18 07:33N 44°59' W 085°37'0 0.0
2015-Jan-18 06:33N 44°59' W 085°37'0 0.0
2015-Jan-18 05:31N 44°59' W 085°37'0 0.0
2015-Jan-18 04:33N 44°59' W 085°37'0 0.0
2015-Jan-18 01:20N 44°59' W 085°37'0 0.0
2015-Jan-18 00:32N 44°59' W 085°37'0 0.0
2015-Jan-17 23:32N 44°59' W 085°37'0 0.0
2015-Jan-17 22:28N 44°59' W 085°37'0 0.0
2015-Jan-17 21:33N 44°59' W 085°37'0 0.0
2015-Jan-17 20:24N 44°59' W 085°37'0 0.0
2015-Jan-17 19:32N 44°59' W 085°37'0 0.0
2015-Jan-17 15:29N 44°59' W 085°37'0 0.0
2015-Jan-17 14:21N 44°59' W 085°37'0 0.0
2015-Jan-17 13:14N 44°59' W 085°37'0 0.0
2015-Jan-17 12:33N 44°59' W 085°37'0 0.0
2015-Jan-17 11:33N 44°59' W 085°37'0 0.0
2015-Jan-17 10:33N 44°59' W 085°37'0 0.0
2015-Jan-17 09:30N 44°59' W 085°37'0 0.0
2015-Jan-17 08:29N 44°59' W 085°37'0 0.0
2015-Jan-17 07:33N 44°59' W 085°37'0 0.0
2015-Jan-17 06:26N 44°59' W 085°37'0 0.0
2015-Jan-17 05:32N 44°59' W 085°37'0 0.0
2015-Jan-17 04:32N 44°59' W 085°38'0 0.0
2015-Jan-17 03:33N 44°59' W 085°38'0 0.0
2015-Jan-17 02:29N 44°59' W 085°38'0 0.0
2015-Jan-17 01:12N 44°59' W 085°38'1 1.2
2015-Jan-17 00:25N 44°60' W 085°37'8 8.7
2015-Jan-16 23:31N 45°06' W 085°30'9 9.0
2015-Jan-16 22:33N 45°15' W 085°27'8 8.4
2015-Jan-16 21:33N 45°20' W 085°18'1 1.1
2015-Jan-16 20:33N 45°19' W 085°18'0 0.0
2015-Jan-16 19:33N 45°19' W 085°18'0 0.0
2015-Jan-16 18:33N 45°19' W 085°18'0 0.0
2015-Jan-16 17:33N 45°19' W 085°18'0 0.0
2015-Jan-16 16:33N 45°19' W 085°18'0 0.0
2015-Jan-16 15:33N 45°19' W 085°18'0 0.0
2015-Jan-16 14:33N 45°19' W 085°18'0 0.0
2015-Jan-16 13:33N 45°19' W 085°18'0 0.0
2015-Jan-16 12:33N 45°19' W 085°18'  
Track history (hours):
 
Tides and Currents Weather Stations Pressure Air Temp Water Temp Dewpoint Dewpoint Depression Visibility Wind Speed Wind Dir Waves Ship Positions

PrentiSS Brown

Owner: Port City Marine Services Inc, Muskegon, MI. More information available from US FCC via Universal Licensing System and Coast Guard Vessel Documentation Center.

Last reported at 2015-Jan-26 12:27 UTC. Time now 2015-Jan-29 14:25 UTC.
Position N 45°00' W 085°58'.

; draft 5.3 m.

Type: Other ship. MMSI: 366922280.

Date/timePositionNaut miles runAvg speedWind from/ knotsBaromVisibWave heightAir tempDewpointWater temp
2015-Jan-26 12:27N 45°00' W 085°58'11 8.9
2015-Jan-26 11:12N 45°08' W 085°47'6 8.8
2015-Jan-26 10:33N 45°12' W 085°41'9 8.9
2015-Jan-26 09:33N 45°16' W 085°30'9 8.9
2015-Jan-26 08:33N 45°20' W 085°18'1 1.0
2015-Jan-26 07:33N 45°19' W 085°18'0 0.0
2015-Jan-26 06:33N 45°19' W 085°18'0 0.0
2015-Jan-26 05:33N 45°19' W 085°18'0 0.0
2015-Jan-26 04:33N 45°19' W 085°18'0 0.0
2015-Jan-26 03:33N 45°19' W 085°18'0 0.0
2015-Jan-26 02:33N 45°19' W 085°18'0 0.0
2015-Jan-26 01:33N 45°19' W 085°18'0 0.0
2015-Jan-26 00:33N 45°19' W 085°18'0 0.0
2015-Jan-25 23:33N 45°19' W 085°18'0 0.0
2015-Jan-25 22:33N 45°19' W 085°18'0 0.0
2015-Jan-25 21:33N 45°19' W 085°18'0 0.0
2015-Jan-25 20:33N 45°19' W 085°18'0 0.0
2015-Jan-25 19:33N 45°19' W 085°18'0 0.0
2015-Jan-25 18:33N 45°19' W 085°18'0 0.0
2015-Jan-25 17:33N 45°19' W 085°18'0 0.0
2015-Jan-25 16:33N 45°19' W 085°18'0 0.2
2015-Jan-25 15:33N 45°19' W 085°17'6 5.7
2015-Jan-25 14:33N 45°21' W 085°25'4 3.6
2015-Jan-25 13:33N 45°24' W 085°24'9 9.1
2015-Jan-25 12:33N 45°30' W 085°35'9 9.0
2015-Jan-25 11:33N 45°32' W 085°48'9 8.9
2015-Jan-25 10:33N 45°31' W 086°00'9 8.9
2015-Jan-25 09:31N 45°30' W 086°13'  
2015-Jan-22 03:10N 45°11' W 085°43'6 9.6
2015-Jan-22 02:33N 45°14' W 085°36'10 9.7
2015-Jan-22 01:33N 45°19' W 085°24'4 4.3
2015-Jan-22 00:33N 45°19' W 085°18'0 0.0
2015-Jan-21 23:33N 45°19' W 085°18'0 0.0
2015-Jan-21 22:50N 45°19' W 085°18'0 0.0
2015-Jan-21 22:46N 45°19' W 085°18'0 0.0
2015-Jan-21 22:33N 45°19' W 085°18'0 0.0
2015-Jan-21 21:33N 45°19' W 085°18'0 0.0
2015-Jan-21 20:33N 45°19' W 085°18'0 0.0
2015-Jan-21 19:33N 45°19' W 085°18'0 0.0
2015-Jan-21 18:33N 45°19' W 085°18'0 0.0
2015-Jan-21 17:33N 45°19' W 085°18'0 0.0
2015-Jan-21 16:33N 45°19' W 085°18'0 0.0
2015-Jan-21 15:33N 45°19' W 085°18'0 0.0
2015-Jan-21 14:33N 45°19' W 085°18'0 0.0
2015-Jan-21 13:33N 45°19' W 085°18'0 0.0
2015-Jan-21 12:33N 45°19' W 085°18'0 0.0
2015-Jan-21 11:33N 45°19' W 085°18'0 0.0
2015-Jan-21 10:33N 45°19' W 085°18'0 0.0
2015-Jan-21 09:33N 45°19' W 085°18'0 0.0
2015-Jan-21 08:33N 45°19' W 085°18'0 0.0
2015-Jan-21 07:33N 45°19' W 085°18'0 0.0
2015-Jan-21 06:33N 45°19' W 085°18'0 0.0
2015-Jan-21 05:33N 45°19' W 085°18'0 0.0
2015-Jan-21 04:33N 45°19' W 085°18'0 0.0
2015-Jan-21 03:33N 45°19' W 085°18'0 0.0
2015-Jan-21 02:33N 45°19' W 085°18'0 0.0
2015-Jan-21 01:33N 45°19' W 085°18'0 0.0
2015-Jan-21 00:33N 45°19' W 085°18'0 0.0
2015-Jan-20 23:33N 45°19' W 085°18'0 0.0
2015-Jan-20 22:33N 45°19' W 085°18'0 0.0
2015-Jan-20 21:33N 45°19' W 085°18'1 1.3
2015-Jan-20 20:33N 45°20' W 085°19'10 9.7
2015-Jan-20 19:33N 45°16' W 085°31'10 9.8
2015-Jan-20 18:33N 45°10' W 085°43'10 9.8
2015-Jan-20 17:33N 45°04' W 085°53'10 0.2
2015-Jan-18 15:33N 45°13' W 085°59'9 8.5
2015-Jan-18 14:33N 45°14' W 085°47'9 8.6
2015-Jan-18 13:33N 45°14' W 085°35'7 6.9
2015-Jan-18 12:33N 45°09' W 085°29'9 8.8
2015-Jan-18 11:33N 45°01' W 085°35'2 2.2
2015-Jan-18 10:33N 44°59' W 085°37'0 0.0
2015-Jan-18 09:33N 44°59' W 085°37'0 0.0
2015-Jan-18 08:33N 44°59' W 085°37'0 0.0
2015-Jan-18 07:33N 44°59' W 085°37'0 0.0
2015-Jan-18 06:33N 44°59' W 085°37'0 0.0
2015-Jan-18 05:31N 44°59' W 085°37'0 0.0
2015-Jan-18 04:33N 44°59' W 085°37'0 0.0
2015-Jan-18 01:20N 44°59' W 085°37'0 0.0
2015-Jan-18 00:32N 44°59' W 085°37'0 0.0
2015-Jan-17 23:32N 44°59' W 085°37'0 0.0
2015-Jan-17 22:28N 44°59' W 085°37'0 0.0
2015-Jan-17 21:33N 44°59' W 085°37'0 0.0
2015-Jan-17 20:24N 44°59' W 085°37'0 0.0
2015-Jan-17 19:32N 44°59' W 085°37'0 0.0
2015-Jan-17 15:29N 44°59' W 085°37'0 0.0
2015-Jan-17 14:21N 44°59' W 085°37'0 0.0
2015-Jan-17 13:14N 44°59' W 085°37'0 0.0
2015-Jan-17 12:33N 44°59' W 085°37'0 0.0
2015-Jan-17 11:33N 44°59' W 085°37'0 0.0
2015-Jan-17 10:33N 44°59' W 085°37'0 0.0
2015-Jan-17 09:30N 44°59' W 085°37'0 0.0
2015-Jan-17 08:29N 44°59' W 085°37'0 0.0
2015-Jan-17 07:33N 44°59' W 085°37'0 0.0
2015-Jan-17 06:26N 44°59' W 085°37'0 0.0
2015-Jan-17 05:32N 44°59' W 085°37'0 0.0
2015-Jan-17 04:32N 44°59' W 085°38'0 0.0
2015-Jan-17 03:33N 44°59' W 085°38'0 0.0
2015-Jan-17 02:29N 44°59' W 085°38'0 0.0
2015-Jan-17 01:12N 44°59' W 085°38'1 1.2
2015-Jan-17 00:25N 44°60' W 085°37'8 8.7
2015-Jan-16 23:31N 45°06' W 085°30'9 9.0
2015-Jan-16 22:33N 45°15' W 085°27'8 8.4
2015-Jan-16 21:33N 45°20' W 085°18'1 1.1
2015-Jan-16 20:33N 45°19' W 085°18'0 0.0
2015-Jan-16 19:33N 45°19' W 085°18'0 0.0
2015-Jan-16 18:33N 45°19' W 085°18'0 0.0
2015-Jan-16 17:33N 45°19' W 085°18'0 0.0
2015-Jan-16 16:33N 45°19' W 085°18'0 0.0
2015-Jan-16 15:33N 45°19' W 085°18'0 0.0
2015-Jan-16 14:33N 45°19' W 085°18'0 0.0
2015-Jan-16 13:33N 45°19' W 085°18'0 0.0
2015-Jan-16 12:33N 45°19' W 085°18'  

Dump ship's entire track history